createdAt,value
2023-05-01T00:01:13.283Z,4.37
2023-05-01T00:03:39.900Z,4.38
2023-05-01T00:06:08.486Z,4.40
2023-05-01T00:08:34.912Z,4.47
2023-05-01T00:11:05.230Z,4.46
2023-05-01T00:13:32.820Z,4.37
2023-05-01T00:15:59.531Z,4.36
2023-05-01T00:18:26.243Z,4.32
2023-05-01T00:20:52.929Z,4.26
2023-05-01T00:23:19.656Z,4.25
2023-05-01T00:25:46.343Z,4.20
2023-05-01T00:28:13.012Z,4.16
2023-05-01T00:30:39.641Z,4.18
2023-05-01T00:33:06.215Z,4.16
2023-05-01T00:35:32.598Z,4.06
2023-05-01T00:37:59.442Z,4.01
2023-05-01T00:40:26.078Z,3.94
2023-05-01T00:42:52.657Z,3.87
2023-05-01T00:45:19.243Z,3.84
2023-05-01T00:47:46.743Z,3.83
2023-05-01T00:50:13.969Z,3.76
2023-05-01T00:52:40.902Z,3.77
2023-05-01T00:55:08.355Z,3.71
2023-05-01T00:57:35.108Z,3.72
2023-05-01T01:00:02.851Z,3.72
2023-05-01T01:02:32.104Z,3.66
2023-05-01T01:05:00.651Z,3.63
2023-05-01T01:08:00.765Z,3.62
2023-05-01T01:10:37.473Z,3.55
2023-05-01T01:13:25.404Z,3.50
2023-05-01T01:16:19.160Z,3.47
2023-05-01T01:19:19.908Z,3.45
2023-05-01T01:21:50.948Z,3.40
2023-05-01T01:24:46.622Z,3.47
2023-05-01T01:27:45.421Z,3.51
2023-05-01T01:30:41.598Z,3.55
2023-05-01T01:33:16.926Z,3.61
2023-05-01T01:35:53.758Z,3.56
2023-05-01T01:38:49.240Z,3.54
2023-05-01T01:41:24.173Z,3.56
2023-05-01T01:44:01.104Z,3.54
2023-05-01T01:46:29.952Z,3.55
2023-05-01T01:48:59.013Z,3.49
2023-05-01T01:51:29.622Z,3.44
2023-05-01T01:54:02.953Z,3.51
2023-05-01T01:56:31.115Z,3.54
2023-05-01T01:59:01.137Z,3.49
2023-05-01T02:01:29.345Z,3.42
2023-05-01T02:04:00.388Z,3.35
2023-05-01T02:06:29.100Z,3.26
2023-05-01T02:08:58.441Z,3.20
2023-05-01T02:11:26.291Z,3.13
2023-05-01T02:13:55.229Z,3.10
2023-05-01T02:16:23.222Z,3.09
2023-05-01T02:18:50.906Z,3.09
2023-05-01T02:21:19.012Z,3.13
2023-05-01T02:23:45.797Z,3.16
2023-05-01T02:26:16.449Z,3.08
2023-05-01T02:28:43.097Z,3.03
2023-05-01T02:31:10.274Z,2.90
2023-05-01T02:33:37.064Z,2.83
2023-05-01T02:36:03.853Z,2.81
2023-05-01T02:38:30.925Z,2.78
2023-05-01T02:40:58.700Z,2.77
2023-05-01T02:43:27.864Z,2.73
2023-05-01T02:45:55.268Z,2.71
2023-05-01T02:48:24.170Z,2.73
2023-05-01T02:50:52.777Z,2.71
2023-05-01T02:53:20.350Z,2.67
2023-05-01T02:55:47.734Z,2.57
2023-05-01T02:58:18.904Z,2.54
2023-05-01T03:00:47.221Z,2.52
2023-05-01T03:03:13.808Z,2.46
2023-05-01T03:05:40.580Z,2.43
2023-05-01T03:08:07.572Z,2.45
2023-05-01T03:10:35.095Z,2.47
2023-05-01T03:13:01.557Z,2.45
2023-05-01T03:15:27.862Z,2.41
2023-05-01T03:17:54.247Z,2.39
2023-05-01T03:20:20.600Z,2.42
2023-05-01T03:22:47.059Z,2.40
2023-05-01T03:25:13.433Z,2.46
2023-05-01T03:27:39.770Z,2.52
2023-05-01T03:30:07.000Z,2.52
2023-05-01T03:32:33.451Z,2.52
2023-05-01T03:34:59.861Z,2.54
2023-05-01T03:37:26.252Z,2.54
2023-05-01T03:39:52.557Z,2.52
2023-05-01T03:42:18.910Z,2.62
2023-05-01T03:44:45.569Z,2.53
2023-05-01T03:47:11.893Z,2.58
2023-05-01T03:49:38.197Z,2.55
2023-05-01T03:52:04.611Z,2.58
2023-05-01T03:54:30.944Z,2.53
2023-05-01T03:56:57.270Z,2.53
2023-05-01T03:59:23.600Z,2.53
2023-05-01T04:01:49.953Z,2.55
2023-05-01T04:04:16.401Z,2.51
2023-05-01T04:06:42.821Z,2.55
2023-05-01T04:09:09.182Z,2.54
2023-05-01T04:11:35.504Z,2.53
2023-05-01T04:14:01.993Z,2.63
2023-05-01T04:16:28.428Z,2.66
2023-05-01T04:18:54.798Z,2.74
2023-05-01T04:21:21.195Z,2.77
2023-05-01T04:23:47.521Z,2.82
2023-05-01T04:26:13.873Z,2.89
2023-05-01T04:28:40.180Z,2.97
2023-05-01T04:31:06.580Z,3.00
2023-05-01T04:33:32.946Z,3.04
2023-05-01T04:35:59.273Z,3.12
2023-05-01T04:38:25.688Z,3.16
2023-05-01T04:40:52.040Z,3.24
2023-05-01T04:43:18.358Z,3.31
2023-05-01T04:45:44.698Z,3.44
2023-05-01T04:48:11.132Z,3.48
2023-05-01T04:50:37.530Z,3.51
2023-05-01T04:53:03.886Z,3.66
2023-05-01T04:55:31.218Z,3.84
2023-05-01T04:57:57.720Z,3.91
2023-05-01T05:00:24.158Z,3.99
2023-05-01T05:02:50.571Z,4.05
2023-05-01T05:05:16.972Z,4.17
2023-05-01T05:07:43.300Z,4.21
2023-05-01T05:10:09.968Z,4.20
2023-05-01T05:12:36.326Z,4.37
2023-05-01T05:15:02.660Z,4.43
2023-05-01T05:17:29.050Z,4.49
2023-05-01T05:19:55.710Z,4.62
2023-05-01T05:22:22.276Z,4.67
2023-05-01T05:24:53.223Z,4.83
2023-05-01T05:27:19.594Z,4.99
2023-05-01T05:29:45.922Z,4.99
2023-05-01T05:32:12.280Z,5.12
2023-05-01T05:34:38.893Z,5.24
2023-05-01T05:37:05.266Z,5.34
2023-05-01T05:39:31.602Z,5.43
2023-05-01T05:41:57.972Z,5.58
2023-05-01T05:44:24.304Z,5.62
2023-05-01T05:46:50.646Z,5.68
2023-05-01T05:49:17.014Z,5.76
2023-05-01T05:51:43.399Z,5.90
2023-05-01T05:54:09.740Z,6.06
2023-05-01T05:56:36.068Z,6.20
2023-05-01T05:59:02.412Z,6.36
2023-05-01T06:01:29.229Z,6.48
2023-05-01T06:03:55.779Z,6.63
2023-05-01T06:06:22.757Z,6.72
2023-05-01T06:08:49.184Z,6.80
2023-05-01T06:11:15.528Z,7.01
2023-05-01T06:13:41.817Z,7.16
2023-05-01T06:16:08.321Z,7.24
2023-05-01T06:18:34.852Z,7.35
2023-05-01T06:21:01.204Z,7.48
2023-05-01T06:23:27.992Z,7.62
2023-05-01T06:25:54.333Z,7.82
2023-05-01T06:28:20.654Z,7.91
2023-05-01T06:30:47.119Z,8.05
2023-05-01T06:33:13.797Z,8.12
2023-05-01T06:35:40.266Z,8.30
2023-05-01T06:38:06.580Z,8.40
2023-05-01T06:40:33.003Z,8.52
2023-05-01T06:42:59.322Z,8.64
2023-05-01T06:45:25.650Z,8.76
2023-05-01T06:47:52.153Z,8.80
2023-05-01T06:50:18.502Z,8.92
2023-05-01T06:52:44.865Z,9.16
2023-05-01T06:55:11.233Z,9.29
2023-05-01T06:57:37.661Z,9.34
2023-05-01T07:00:04.430Z,9.52
2023-05-01T07:02:30.843Z,9.74
2023-05-01T07:04:57.428Z,9.74
2023-05-01T07:07:23.831Z,10.01
2023-05-01T07:09:50.207Z,10.10
2023-05-01T07:12:16.536Z,10.29
2023-05-01T07:14:42.917Z,10.39
2023-05-01T07:17:09.284Z,10.54
2023-05-01T07:19:35.658Z,10.61
2023-05-01T07:22:02.197Z,10.69
2023-05-01T07:24:28.550Z,10.81
2023-05-01T07:26:54.988Z,11.04
2023-05-01T07:29:21.322Z,11.13
2023-05-01T07:31:47.707Z,11.22
2023-05-01T07:34:14.055Z,11.20
2023-05-01T07:36:40.419Z,11.40
2023-05-01T07:39:06.743Z,11.64
2023-05-01T07:41:33.076Z,11.71
2023-05-01T07:43:59.660Z,11.90
2023-05-01T07:46:26.190Z,12.06
2023-05-01T07:48:52.771Z,12.17
2023-05-01T07:51:19.215Z,12.39
2023-05-01T07:53:45.541Z,12.52
2023-05-01T07:56:11.911Z,12.63
2023-05-01T07:58:38.355Z,12.73
2023-05-01T08:01:05.895Z,12.70
2023-05-01T08:03:32.425Z,12.65
2023-05-01T08:05:58.868Z,12.74
2023-05-01T08:08:25.282Z,12.92
2023-05-01T08:10:52.335Z,13.07
2023-05-01T08:13:18.967Z,13.24
2023-05-01T08:15:48.839Z,13.38
2023-05-01T08:18:15.312Z,13.53
2023-05-01T08:20:41.637Z,13.61
2023-05-01T08:23:07.964Z,13.76
2023-05-01T08:25:34.298Z,13.85
2023-05-01T08:28:00.669Z,14.03
2023-05-01T08:30:27.042Z,14.09
2023-05-01T08:32:53.434Z,14.20
2023-05-01T08:35:19.785Z,14.33
2023-05-01T08:37:46.140Z,14.46
2023-05-01T08:40:12.569Z,14.42
2023-05-01T08:42:39.076Z,14.58
2023-05-01T08:45:09.551Z,14.89
2023-05-01T08:47:40.514Z,15.08
2023-05-01T08:50:10.805Z,14.96
2023-05-01T08:52:40.785Z,15.05
2023-05-01T08:55:11.718Z,14.95
2023-05-01T08:57:39.038Z,15.16
2023-05-01T09:00:06.730Z,15.31
2023-05-01T09:02:35.047Z,15.50
2023-05-01T09:05:03.257Z,15.79
2023-05-01T09:07:29.919Z,15.95
2023-05-01T09:09:56.731Z,16.02
2023-05-01T09:12:25.754Z,16.05
2023-05-01T09:14:53.483Z,16.02
2023-05-01T09:17:21.585Z,16.05
2023-05-01T09:19:49.972Z,16.29
2023-05-01T09:22:18.761Z,16.51
2023-05-01T09:24:45.497Z,16.59
2023-05-01T09:27:13.360Z,16.70
2023-05-01T09:29:44.943Z,16.76
2023-05-01T09:32:26.246Z,16.84
2023-05-01T09:34:53.080Z,17.18
2023-05-01T09:37:28.524Z,17.25
2023-05-01T09:40:12.177Z,17.37
2023-05-01T09:42:52.929Z,17.61
2023-05-01T09:45:20.053Z,17.81
2023-05-01T09:47:47.169Z,17.77
2023-05-01T09:50:34.756Z,18.05
2023-05-01T09:53:02.452Z,18.18
2023-05-01T09:55:28.885Z,18.37
2023-05-01T09:57:55.310Z,18.43
2023-05-01T10:00:21.985Z,18.50
2023-05-01T10:02:49.828Z,18.75
2023-05-01T10:05:16.771Z,18.77
2023-05-01T10:07:56.692Z,18.78
2023-05-01T10:10:23.415Z,18.72
2023-05-01T10:12:50.187Z,18.76
2023-05-01T10:15:25.292Z,18.90
2023-05-01T10:17:54.332Z,18.78
2023-05-01T10:20:21.568Z,19.12
2023-05-01T10:22:48.280Z,19.24
2023-05-01T10:25:15.760Z,19.04
2023-05-01T10:27:42.393Z,19.14
2023-05-01T10:30:10.109Z,19.28
2023-05-01T10:32:40.280Z,19.40
2023-05-01T10:35:19.179Z,19.45
2023-05-01T10:37:51.617Z,19.35
2023-05-01T10:40:40.376Z,19.37
2023-05-01T10:43:30.595Z,19.51
2023-05-01T10:46:18.085Z,19.50
2023-05-01T10:48:47.883Z,19.28
2023-05-01T10:51:20.003Z,19.36
2023-05-01T10:54:10.087Z,19.58
2023-05-01T10:56:58.968Z,20.18
2023-05-01T10:59:26.232Z,20.34
2023-05-01T11:01:53.436Z,20.19
2023-05-01T11:04:23.058Z,20.09
2023-05-01T11:07:02.032Z,20.32
2023-05-01T11:09:42.001Z,20.61
2023-05-01T11:12:10.216Z,20.53
2023-05-01T11:14:55.261Z,20.65
2023-05-01T11:17:52.598Z,20.75
2023-05-01T11:20:24.916Z,21.04
2023-05-01T11:22:56.111Z,20.92
2023-05-01T11:25:23.720Z,20.99
2023-05-01T11:28:10.980Z,20.37
2023-05-01T11:30:38.764Z,20.22
2023-05-01T11:33:07.119Z,20.03
2023-05-01T11:35:36.074Z,19.94
2023-05-01T11:38:02.802Z,19.85
2023-05-01T11:40:30.193Z,19.89
2023-05-01T11:43:07.662Z,19.98
2023-05-01T11:45:37.824Z,20.06
2023-05-01T11:48:05.850Z,20.38
2023-05-01T11:50:33.885Z,20.75
2023-05-01T11:53:00.347Z,20.85
2023-05-01T11:55:34.883Z,21.23
2023-05-01T11:58:01.917Z,21.47
2023-05-01T12:00:31.059Z,21.86
2023-05-01T12:03:08.052Z,22.19
2023-05-01T12:05:36.616Z,22.16
2023-05-01T12:08:14.957Z,22.16
2023-05-01T12:10:43.653Z,22.21
2023-05-01T12:13:13.124Z,21.99
2023-05-01T12:15:45.310Z,22.40
2023-05-01T12:18:13.715Z,22.31
2023-05-01T12:20:49.264Z,22.29
2023-05-01T12:23:16.693Z,22.11
2023-05-01T12:25:44.606Z,21.83
2023-05-01T12:28:15.405Z,21.74
2023-05-01T12:30:43.951Z,21.90
2023-05-01T12:33:14.904Z,21.84
2023-05-01T12:35:43.009Z,21.80
2023-05-01T12:38:16.744Z,21.69
2023-05-01T12:40:57.632Z,21.81
2023-05-01T12:43:37.325Z,21.89
2023-05-01T12:46:05.897Z,21.64
2023-05-01T12:48:33.185Z,21.66
2023-05-01T12:51:00.828Z,21.56
2023-05-01T12:53:29.033Z,21.66
2023-05-01T12:55:58.665Z,21.78
2023-05-01T12:58:37.711Z,21.99
2023-05-01T13:01:05.753Z,22.09
2023-05-01T13:03:34.760Z,21.86
2023-05-01T13:06:03.813Z,21.74
2023-05-01T13:08:36.547Z,21.95
2023-05-01T13:11:12.053Z,22.24
2023-05-01T13:13:39.270Z,22.19
2023-05-01T13:16:11.856Z,22.07
2023-05-01T13:18:50.396Z,21.92
2023-05-01T13:21:21.200Z,22.32
2023-05-01T13:23:59.449Z,21.89
2023-05-01T13:26:35.837Z,21.67
2023-05-01T13:29:04.277Z,21.91
2023-05-01T13:31:31.342Z,22.00
2023-05-01T13:33:59.644Z,22.09
2023-05-01T13:36:31.765Z,22.22
2023-05-01T13:38:58.280Z,21.98
2023-05-01T13:41:26.396Z,22.23
2023-05-01T13:43:54.646Z,22.10
2023-05-01T13:46:23.840Z,22.36
2023-05-01T13:48:50.896Z,22.37
2023-05-01T13:51:26.987Z,22.34
2023-05-01T13:53:56.183Z,21.57
2023-05-01T13:56:23.970Z,21.60
2023-05-01T13:58:50.774Z,21.67
2023-05-01T14:01:22.776Z,21.86
2023-05-01T14:03:50.072Z,21.79
2023-05-01T14:06:19.438Z,21.52
2023-05-01T14:08:47.504Z,21.50
2023-05-01T14:11:15.094Z,21.50
2023-05-01T14:13:44.606Z,21.55
2023-05-01T14:16:22.010Z,21.54
2023-05-01T14:18:48.610Z,21.71
2023-05-01T14:21:16.924Z,21.58
2023-05-01T14:23:43.349Z,21.55
2023-05-01T14:26:11.473Z,21.49
2023-05-01T14:28:42.235Z,21.39
2023-05-01T14:31:08.988Z,21.14
2023-05-01T14:33:41.935Z,20.97
2023-05-01T14:36:09.367Z,21.15
2023-05-01T14:38:36.153Z,21.11
2023-05-01T14:41:04.625Z,21.06
2023-05-01T14:43:31.118Z,21.17
2023-05-01T14:45:57.611Z,21.27
2023-05-01T14:48:35.233Z,21.28
2023-05-01T14:51:04.129Z,21.14
2023-05-01T14:53:32.709Z,20.86
2023-05-01T14:55:59.157Z,20.96
2023-05-01T14:58:25.926Z,20.79
2023-05-01T15:00:52.560Z,20.70
2023-05-01T15:03:19.448Z,20.33
2023-05-01T15:05:46.383Z,20.40
2023-05-01T15:08:13.157Z,20.25
2023-05-01T15:10:39.968Z,20.28
2023-05-01T15:13:06.532Z,20.21
2023-05-01T15:15:35.229Z,20.21
2023-05-01T15:18:01.771Z,20.29
2023-05-01T15:20:29.305Z,20.34
2023-05-01T15:22:56.902Z,20.19
2023-05-01T15:25:23.569Z,20.19
2023-05-01T15:27:50.083Z,20.20
2023-05-01T15:30:16.487Z,20.25
2023-05-01T15:32:43.608Z,20.26
2023-05-01T15:35:10.771Z,20.19
2023-05-01T15:37:37.274Z,20.12
2023-05-01T15:40:05.043Z,20.03
2023-05-01T15:42:33.090Z,19.97
2023-05-01T15:45:00.152Z,20.01
2023-05-01T15:47:26.985Z,19.84
2023-05-01T15:49:54.021Z,19.80
2023-05-01T15:52:20.434Z,19.82
2023-05-01T15:54:47.156Z,19.78
2023-05-01T15:57:14.268Z,19.79
2023-05-01T15:59:40.869Z,19.78
2023-05-01T16:02:07.932Z,19.73
2023-05-01T16:04:34.974Z,19.64
2023-05-01T16:07:02.764Z,19.69
2023-05-01T16:09:32.878Z,19.73
2023-05-01T16:12:01.941Z,19.72
2023-05-01T16:14:28.579Z,19.76
2023-05-01T16:16:55.040Z,19.71
2023-05-01T16:19:21.708Z,19.57
2023-05-01T16:21:48.125Z,19.46
2023-05-01T16:24:14.952Z,19.52
2023-05-01T16:26:41.689Z,19.50
2023-05-01T16:29:08.517Z,19.44
2023-05-01T16:31:39.711Z,19.42
2023-05-01T16:34:07.233Z,19.40
2023-05-01T16:36:40.191Z,19.27
2023-05-01T16:39:07.884Z,19.26
2023-05-01T16:41:50.593Z,19.20
2023-05-01T16:44:18.660Z,19.18
2023-05-01T16:46:53.849Z,19.20
2023-05-01T16:49:20.662Z,19.19
2023-05-01T16:51:47.247Z,19.15
2023-05-01T16:54:13.752Z,19.08
2023-05-01T16:56:40.273Z,19.03
2023-05-01T16:59:06.947Z,18.99
2023-05-01T17:01:34.591Z,18.84
2023-05-01T17:04:01.344Z,18.78
2023-05-01T17:06:27.776Z,18.71
2023-05-01T17:08:54.273Z,18.69
2023-05-01T17:11:21.544Z,18.70
2023-05-01T17:13:48.266Z,18.69
2023-05-01T17:16:14.787Z,18.61
2023-05-01T17:18:41.370Z,18.57
2023-05-01T17:21:08.315Z,18.49
2023-05-01T17:23:34.772Z,18.44
2023-05-01T17:26:01.329Z,18.40
2023-05-01T17:28:28.104Z,18.32
2023-05-01T17:30:54.820Z,18.24
2023-05-01T17:33:22.231Z,18.14
2023-05-01T17:35:48.720Z,18.06
2023-05-01T17:38:17.821Z,18.00
2023-05-01T17:40:44.431Z,17.94
2023-05-01T17:43:11.080Z,17.83
2023-05-01T17:45:37.555Z,17.75
2023-05-01T17:48:04.462Z,17.68
2023-05-01T17:50:32.236Z,17.58
2023-05-01T17:52:58.682Z,17.44
2023-05-01T17:55:25.139Z,17.30
2023-05-01T17:57:52.217Z,17.13
2023-05-01T18:00:19.188Z,16.97
2023-05-01T18:02:45.699Z,16.89
2023-05-01T18:05:12.742Z,16.75
2023-05-01T18:07:39.291Z,16.61
2023-05-01T18:10:06.414Z,16.52
2023-05-01T18:12:32.842Z,16.41
2023-05-01T18:14:59.318Z,16.37
2023-05-01T18:17:25.834Z,16.27
2023-05-01T18:19:52.377Z,16.13
2023-05-01T18:22:18.830Z,16.08
2023-05-01T18:24:45.273Z,15.94
2023-05-01T18:27:12.453Z,15.80
2023-05-01T18:29:38.942Z,15.79
2023-05-01T18:32:05.771Z,15.66
2023-05-01T18:34:32.327Z,15.56
2023-05-01T18:36:58.756Z,15.51
2023-05-01T18:39:25.291Z,15.45
2023-05-01T18:41:54.174Z,15.33
2023-05-01T18:44:20.747Z,15.30
2023-05-01T18:46:47.257Z,15.21
2023-05-01T18:49:13.816Z,15.15
2023-05-01T18:51:40.261Z,15.09
2023-05-01T18:54:06.767Z,14.97
2023-05-01T18:56:33.512Z,14.84
2023-05-01T18:59:00.729Z,14.81
2023-05-01T19:01:27.185Z,14.73
2023-05-01T19:03:53.719Z,14.65
2023-05-01T19:06:20.151Z,14.58
2023-05-01T19:08:46.619Z,14.47
2023-05-01T19:11:13.049Z,14.44
2023-05-01T19:13:39.499Z,14.40
2023-05-01T19:16:06.154Z,14.37
2023-05-01T19:18:32.619Z,14.33
2023-05-01T19:20:59.098Z,14.20
2023-05-01T19:23:25.485Z,14.10
2023-05-01T19:25:51.983Z,14.06
2023-05-01T19:28:18.421Z,14.09
2023-05-01T19:30:44.924Z,14.05
2023-05-01T19:33:11.401Z,14.04
2023-05-01T19:35:37.944Z,14.01
2023-05-01T19:38:04.388Z,13.91
2023-05-01T19:40:31.716Z,13.79
2023-05-01T19:42:58.116Z,13.69
2023-05-01T19:45:24.549Z,13.63
2023-05-01T19:47:51.155Z,13.59
2023-05-01T19:50:17.962Z,13.52
2023-05-01T19:52:44.383Z,13.44
2023-05-01T19:55:11.057Z,13.38
2023-05-01T19:57:37.461Z,13.33
2023-05-01T20:00:10.895Z,13.29
2023-05-01T20:02:37.878Z,13.27
2023-05-01T20:05:05.003Z,13.22
2023-05-01T20:07:31.690Z,13.24
2023-05-01T20:09:58.644Z,13.26
2023-05-01T20:12:25.556Z,13.23
2023-05-01T20:14:52.082Z,13.11
2023-05-01T20:17:18.789Z,13.08
2023-05-01T20:19:45.570Z,13.04
2023-05-01T20:22:12.369Z,13.01
2023-05-01T20:24:39.091Z,13.01
2023-05-01T20:27:05.842Z,13.00
2023-05-01T20:29:32.570Z,13.00
2023-05-01T20:32:04.388Z,12.94
2023-05-01T20:34:34.093Z,12.82
2023-05-01T20:37:00.565Z,12.87
2023-05-01T20:39:26.983Z,12.86
2023-05-01T20:41:53.854Z,12.79
2023-05-01T20:44:20.261Z,12.76
2023-05-01T20:46:46.855Z,12.78
2023-05-01T20:49:15.921Z,12.71
2023-05-01T20:51:42.999Z,12.66
2023-05-01T20:54:09.673Z,12.63
2023-05-01T20:56:36.111Z,12.56
2023-05-01T20:59:04.502Z,12.54
2023-05-01T21:01:31.555Z,12.54
2023-05-01T21:04:00.011Z,12.47
2023-05-01T21:06:26.919Z,12.44
2023-05-01T21:08:53.409Z,12.41
2023-05-01T21:11:20.108Z,12.37
2023-05-01T21:13:46.542Z,12.39
2023-05-01T21:16:14.892Z,12.40
2023-05-01T21:18:41.614Z,12.41
2023-05-01T21:21:08.927Z,12.36
2023-05-01T21:23:36.320Z,12.33
2023-05-01T21:26:03.005Z,12.34
2023-05-01T21:28:29.910Z,12.34
2023-05-01T21:30:56.623Z,12.30
2023-05-01T21:33:23.208Z,12.28
2023-05-01T21:35:49.666Z,12.24
2023-05-01T21:38:16.770Z,12.22
2023-05-01T21:40:43.646Z,12.15
2023-05-01T21:43:10.069Z,12.13
2023-05-01T21:45:39.199Z,12.12
2023-05-01T21:48:07.520Z,12.11
2023-05-01T21:50:37.154Z,12.10
2023-05-01T21:53:05.355Z,12.08
2023-05-01T21:55:31.913Z,12.09
2023-05-01T21:57:58.738Z,12.07
2023-05-01T22:00:25.695Z,12.00
2023-05-01T22:02:52.258Z,11.99
2023-05-01T22:05:21.537Z,12.00
2023-05-01T22:07:49.104Z,12.01
2023-05-01T22:10:21.683Z,11.99
2023-05-01T22:12:48.396Z,12.01
2023-05-01T22:15:16.122Z,11.97
2023-05-01T22:17:42.905Z,11.93
2023-05-01T22:20:09.867Z,11.92
2023-05-01T22:22:36.576Z,11.93
2023-05-01T22:25:04.200Z,11.90
2023-05-01T22:27:31.358Z,11.86
2023-05-01T22:29:58.213Z,11.84
2023-05-01T22:32:24.983Z,11.84
2023-05-01T22:34:51.826Z,11.81
2023-05-01T22:37:18.513Z,11.78
2023-05-01T22:39:45.332Z,11.74
2023-05-01T22:42:13.263Z,11.73
2023-05-01T22:44:40.001Z,11.72
2023-05-01T22:47:06.449Z,11.72
2023-05-01T22:49:32.909Z,11.74
2023-05-01T22:51:59.630Z,11.73
2023-05-01T22:54:26.328Z,11.73
2023-05-01T22:56:52.935Z,11.72
2023-05-01T22:59:19.989Z,11.72
2023-05-01T23:01:46.703Z,11.72
2023-05-01T23:04:13.911Z,11.70
2023-05-01T23:06:41.059Z,11.68
2023-05-01T23:09:07.687Z,11.68
2023-05-01T23:11:34.859Z,11.68
2023-05-01T23:14:01.768Z,11.65
2023-05-01T23:16:32.190Z,11.60
2023-05-01T23:18:58.972Z,11.57
2023-05-01T23:21:25.941Z,11.56
2023-05-01T23:23:52.775Z,11.53
2023-05-01T23:26:27.951Z,11.58
2023-05-01T23:28:55.007Z,11.53
2023-05-01T23:31:24.000Z,11.48
2023-05-01T23:33:50.744Z,11.45
2023-05-01T23:36:18.033Z,11.45
2023-05-01T23:38:44.786Z,11.44
2023-05-01T23:41:12.040Z,11.34
2023-05-01T23:43:38.724Z,11.33
2023-05-01T23:46:06.194Z,11.32
2023-05-01T23:48:33.885Z,11.32
2023-05-01T23:51:00.681Z,11.26
2023-05-01T23:53:27.293Z,11.22
2023-05-01T23:55:53.768Z,11.21
2023-05-01T23:58:20.524Z,11.11
